Time;durP1;ratioP1;P1;durP2;ratioP2;P2;SDS_P1;SDS_P2;PMS_P1;PMS_P2;Temp;Humidity;BMP_temperature;BMP_pressure;BME280_temperature;BME280_humidity;BME280_pressure;Samples;Min_cycle;Max_cycle;Signal;HPM_P1;HPM_P2
2022/02/18 00:01:37;;;;;;;0.00;0.00;;;;;22.60;100330.00;;;;5125483;27;20046;-79
2022/02/18 00:04:07;;;;;;;0.15;0.15;;;;;22.60;100296.00;;;;5125727;27;20054;-80
2022/02/18 00:06:36;;;;;;;0.00;0.00;;;;;22.60;100320.00;;;;5127240;27;20043;-78
2022/02/18 00:09:06;;;;;;;0.10;0.10;;;;;22.50;100322.00;;;;5125586;27;20062;-80
2022/02/18 00:11:35;;;;;;;0.00;0.00;;;;;22.50;100324.00;;;;5126189;27;20421;-81
2022/02/18 00:14:04;;;;;;;0.00;0.00;;;;;22.50;100322.00;;;;5126447;27;20058;-78
2022/02/18 00:16:34;;;;;;;0.35;0.35;;;;;22.40;100338.00;;;;5127011;27;20073;-79
2022/02/18 00:19:03;;;;;;;0.10;0.10;;;;;22.40;100347.00;;;;5127360;28;20074;-76
2022/02/18 00:21:33;;;;;;;0.00;0.00;;;;;22.50;100332.00;;;;5126018;28;20585;-82
2022/02/18 00:24:03;;;;;;;0.10;0.10;;;;;22.40;100334.00;;;;5125655;28;20047;-81
2022/02/18 00:26:32;;;;;;;0.15;0.10;;;;;22.40;100353.00;;;;5127427;27;20062;-80
2022/02/18 00:29:02;;;;;;;0.10;0.10;;;;;22.30;100332.00;;;;5125749;28;20043;-80
2022/02/18 00:31:31;;;;;;;0.00;0.00;;;;;22.20;100335.00;;;;5126962;27;20059;-78
2022/02/18 00:34:01;;;;;;;0.00;0.00;;;;;22.20;100358.00;;;;5125916;28;20051;-79
2022/02/18 00:36:31;;;;;;;0.00;0.00;;;;;22.20;100353.00;;;;5127386;27;20130;-81
2022/02/18 00:39:00;;;;;;;0.00;0.00;;;;;22.20;100350.00;;;;5126516;27;20049;-81
2022/02/18 00:41:29;;;;;;;0.00;0.00;;;;;22.10;100359.00;;;;5125519;28;20521;-77
2022/02/18 00:43:59;;;;;;;0.00;0.00;;;;;22.00;100351.00;;;;5108321;28;20430;-79
2022/02/18 00:46:29;;;;;;;0.00;0.00;;;;;21.90;100374.00;;;;5127136;27;20163;-78
2022/02/18 00:49:01;;;;;;;0.00;0.00;;;;;21.90;100376.00;;;;5129440;27;20520;-80
2022/02/18 00:51:31;;;;;;;0.00;0.00;;;;;21.90;100370.00;;;;5128908;27;20520;-79
2022/02/18 00:54:00;;;;;;;0.00;0.00;;;;;21.80;100373.00;;;;5130117;27;20047;-80
2022/02/18 00:56:30;;;;;;;0.00;0.00;;;;;21.80;100365.00;;;;5129270;27;20050;-79
2022/02/18 00:59:02;;;;;;;0.00;0.00;;;;;21.80;100372.00;;;;5129652;27;20047;-81
2022/02/18 01:01:33;;;;;;;0.00;0.00;;;;;21.80;100385.00;;;;5129686;27;20050;-80
2022/02/18 01:04:04;;;;;;;0.10;0.08;;;;;21.80;100357.00;;;;5128165;27;20857;-79
2022/02/18 01:06:40;;;;;;;0.00;0.00;;;;;21.70;100375.00;;;;5128693;27;20047;-79
2022/02/18 01:09:10;;;;;;;0.00;0.00;;;;;21.80;100366.00;;;;5129240;27;20434;-79
2022/02/18 01:11:39;;;;;;;0.00;0.00;;;;;21.80;100357.00;;;;5129707;27;20430;-81
2022/02/18 01:14:09;;;;;;;0.00;0.00;;;;;21.70;100358.00;;;;5130053;27;20050;-78
2022/02/18 01:16:39;;;;;;;0.00;0.00;;;;;21.70;100362.00;;;;5128709;27;20058;-81
2022/02/18 01:19:08;;;;;;;0.00;0.00;;;;;21.60;100367.00;;;;5128894;27;20051;-77
2022/02/18 01:21:38;;;;;;;0.00;0.00;;;;;21.80;100368.00;;;;5128950;27;20047;-81
2022/02/18 01:24:08;;;;;;;0.00;0.00;;;;;21.80;100368.00;;;;5128405;27;20049;-78
2022/02/18 01:26:37;;;;;;;0.00;0.00;;;;;21.70;100367.00;;;;5128743;27;20054;-78
2022/02/18 01:29:07;;;;;;;0.00;0.00;;;;;21.50;100360.00;;;;5127824;27;20686;-80
2022/02/18 01:31:38;;;;;;;0.00;0.00;;;;;21.30;100362.00;;;;5129076;27;20573;-77
2022/02/18 01:34:08;;;;;;;0.00;0.00;;;;;21.10;100355.00;;;;5128629;27;21107;-78
2022/02/18 01:36:37;;;;;;;0.00;0.00;;;;;21.00;100356.00;;;;5111368;27;20562;-78
2022/02/18 01:39:07;;;;;;;0.00;0.00;;;;;20.80;100346.00;;;;5129876;27;20046;-80
2022/02/18 01:41:37;;;;;;;0.00;0.00;;;;;20.60;100357.00;;;;5128046;27;20062;-78
2022/02/18 01:44:07;;;;;;;0.00;0.00;;;;;20.50;100348.00;;;;5128858;27;20502;-79
2022/02/18 01:46:37;;;;;;;0.00;0.00;;;;;20.50;100342.00;;;;5130775;27;20043;-76
2022/02/18 01:49:08;;;;;;;0.00;0.00;;;;;20.40;100349.00;;;;5128371;27;20039;-77
2022/02/18 01:51:38;;;;;;;0.00;0.00;;;;;20.30;100355.00;;;;5129121;27;20038;-81
2022/02/18 01:54:07;;;;;;;0.00;0.00;;;;;20.10;100361.00;;;;5129620;27;20065;-80
2022/02/18 01:56:37;;;;;;;0.00;0.00;;;;;20.00;100369.00;;;;5128403;27;20039;-80
2022/02/18 01:59:10;;;;;;;0.00;0.00;;;;;19.90;100369.00;;;;5110304;27;20133;-78
2022/02/18 02:01:39;;;;;;;0.00;0.00;;;;;19.80;100357.00;;;;5111212;27;20517;-77
2022/02/18 02:04:09;;;;;;;0.00;0.00;;;;;19.70;100358.00;;;;5129076;27;20498;-79
2022/02/18 02:06:40;;;;;;;0.00;0.00;;;;;19.70;100354.00;;;;5129387;27;20122;-79
2022/02/18 02:09:10;;;;;;;;;;;;;19.80;100375.00;;;;5111865;27;20043;-78
2022/02/18 02:11:40;;;;;;;0.00;0.00;;;;;19.70;100369.00;;;;5128005;27;20013;-80
2022/02/18 02:14:10;;;;;;;0.00;0.00;;;;;19.60;100357.00;;;;5127492;27;20058;-79
2022/02/18 02:16:42;;;;;;;0.00;0.00;;;;;19.60;100356.00;;;;5128004;27;20799;-78
2022/02/18 02:19:12;;;;;;;0.00;0.00;;;;;19.50;100361.00;;;;5128156;27;20048;-77
2022/02/18 02:21:54;;;;;;;0.00;0.00;;;;;19.40;100371.00;;;;5127977;27;20063;-79
2022/02/18 02:24:25;;;;;;;0.00;0.00;;;;;19.40;100361.00;;;;5111806;27;20051;-79
2022/02/18 02:26:57;;;;;;;0.00;0.00;;;;;19.40;100372.00;;;;5111688;27;20130;-77
2022/02/18 02:29:26;;;;;;;0.25;0.10;;;;;19.30;100360.00;;;;5127112;27;20067;-78
2022/02/18 02:32:00;;;;;;;0.00;0.00;;;;;19.30;100395.00;;;;5111199;27;20146;-79
2022/02/18 02:34:33;;;;;;;0.00;0.00;;;;;19.20;100381.00;;;;5128373;27;20601;-81
2022/02/18 02:37:03;;;;;;;0.00;0.00;;;;;19.20;100401.00;;;;5128892;27;20058;-77
2022/02/18 02:39:34;;;;;;;0.00;0.00;;;;;19.20;100385.00;;;;5110998;27;20050;-80
2022/02/18 02:42:05;;;;;;;0.00;0.00;;;;;19.20;100377.00;;;;5129184;27;20049;-80
2022/02/18 02:44:37;;;;;;;0.00;0.00;;;;;19.10;100387.00;;;;5128349;27;20170;-80
2022/02/18 02:47:13;;;;;;;0.00;0.00;;;;;19.00;100366.00;;;;5127872;27;20104;-81
2022/02/18 02:49:43;;;;;;;0.00;0.00;;;;;19.00;100363.00;;;;5111254;27;20061;-79
2022/02/18 02:52:12;;;;;;;0.00;0.00;;;;;19.00;100377.00;;;;5127158;27;20442;-79
2022/02/18 02:54:44;;;;;;;0.00;0.00;;;;;19.00;100383.00;;;;5127374;27;20054;-80
2022/02/18 02:57:13;;;;;;;0.00;0.00;;;;;19.00;100367.00;;;;5126578;27;20489;-79
2022/02/18 02:59:52;;;;;;;0.00;0.00;;;;;19.00;100381.00;;;;5111290;27;20078;-80
2022/02/18 03:02:22;;;;;;;0.00;0.00;;;;;19.00;100370.00;;;;5126696;27;20047;-80
2022/02/18 03:04:52;;;;;;;0.00;0.00;;;;;19.00;100356.00;;;;5126421;27;20043;-79
2022/02/18 03:07:21;;;;;;;0.00;0.00;;;;;19.00;100361.00;;;;5127121;27;20039;-80
2022/02/18 03:09:58;;;;;;;0.00;0.00;;;;;18.90;100353.00;;;;5127262;27;20509;-78
2022/02/18 03:12:28;;;;;;;0.00;0.00;;;;;18.80;100358.00;;;;5126895;27;20047;-80
2022/02/18 03:15:06;;;;;;;0.20;0.20;;;;;18.70;100345.00;;;;5111683;27;20435;-80
2022/02/18 03:17:38;;;;;;;0.00;0.00;;;;;18.70;100339.00;;;;5126841;27;20510;-78
2022/02/18 03:20:21;;;;;;;0.00;0.00;;;;;18.70;100340.00;;;;5112178;27;20489;-80
2022/02/18 03:22:53;;;;;;;0.00;0.00;;;;;18.70;100347.00;;;;5127066;27;20055;-79
2022/02/18 03:25:23;;;;;;;0.00;0.00;;;;;18.70;100323.00;;;;5126927;27;20051;-78
2022/02/18 03:27:53;;;;;;;0.30;0.20;;;;;18.70;100338.00;;;;5127137;27;20092;-81
2022/02/18 03:30:26;;;;;;;0.00;0.00;;;;;18.70;100336.00;;;;5111597;27;20138;-78
2022/02/18 03:32:56;;;;;;;0.05;0.05;;;;;18.70;100332.00;;;;5128610;27;20053;-80
2022/02/18 03:35:26;;;;;;;0.00;0.00;;;;;18.80;100316.00;;;;5126653;27;20085;-82
2022/02/18 03:37:57;;;;;;;0.00;0.00;;;;;18.80;100318.00;;;;5126606;27;20076;-80
2022/02/18 03:40:30;;;;;;;0.00;0.00;;;;;18.80;100315.00;;;;5126571;27;20764;-81
2022/02/18 03:43:00;;;;;;;0.00;0.00;;;;;18.90;100335.00;;;;5126674;27;20039;-80
2022/02/18 03:45:36;;;;;;;0.00;0.00;;;;;19.00;100315.00;;;;5110555;27;20050;-81
2022/02/18 03:48:18;;;;;;;0.00;0.00;;;;;18.90;100323.00;;;;5126299;27;20047;-79
2022/02/18 03:50:48;;;;;;;0.00;0.00;;;;;18.90;100322.00;;;;5125833;27;20074;-79
2022/02/18 03:53:20;;;;;;;0.00;0.00;;;;;18.90;100318.00;;;;5126528;27;20418;-80
2022/02/18 03:56:02;;;;;;;0.00;0.00;;;;;18.90;100314.00;;;;5125863;27;20080;-80
2022/02/18 03:58:35;;;;;;;0.00;0.00;;;;;18.80;100305.00;;;;5126004;27;20051;-80
2022/02/18 04:01:05;;;;;;;0.00;0.00;;;;;18.80;100311.00;;;;5125901;27;20051;-78
2022/02/18 04:03:35;;;;;;;0.00;0.00;;;;;18.80;100313.00;;;;5126228;27;20039;-81
2022/02/18 04:06:14;;;;;;;0.00;0.00;;;;;18.80;100292.00;;;;5127718;27;20063;-80
2022/02/18 04:08:51;;;;;;;0.00;0.00;;;;;18.70;100305.00;;;;5126540;27;20057;-78
2022/02/18 04:11:35;;;;;;;0.00;0.00;;;;;18.70;100288.00;;;;5126120;27;20096;-81
2022/02/18 04:14:08;;;;;;;0.00;0.00;;;;;18.70;100292.00;;;;5109759;28;20050;-80
2022/02/18 04:16:38;;;;;;;0.00;0.00;;;;;18.70;100279.00;;;;5126105;28;20051;-77
2022/02/18 04:19:13;;;;;;;0.00;0.00;;;;;18.70;100302.00;;;;5126130;28;20054;-80
2022/02/18 04:22:02;;;;;;;0.65;0.65;;;;;18.60;100296.00;;;;5110957;27;20058;-80
2022/02/18 04:24:41;;;;;;;0.00;0.00;;;;;18.60;100273.00;;;;5115245;27;20054;-79
2022/02/18 04:27:12;;;;;;;0.00;0.00;;;;;18.60;100282.00;;;;5114265;27;20096;-78
2022/02/18 04:29:42;;;;;;;0.00;0.00;;;;;18.70;100294.00;;;;5129758;27;20055;-79
2022/02/18 04:32:13;;;;;;;0.00;0.00;;;;;18.80;100291.00;;;;5130776;27;20103;-77
2022/02/18 04:34:47;;;;;;;0.00;0.00;;;;;18.80;100290.00;;;;5130086;27;20146;-81
2022/02/18 04:37:17;;;;;;;0.00;0.00;;;;;19.00;100270.00;;;;5131170;27;20406;-81
2022/02/18 04:39:46;;;;;;;0.00;0.00;;;;;19.20;100271.00;;;;5129718;27;20047;-81
2022/02/18 04:42:16;;;;;;;0.00;0.00;;;;;19.10;100292.00;;;;5129437;27;20512;-81
2022/02/18 04:44:46;;;;;;;0.00;0.00;;;;;18.90;100267.00;;;;5130485;27;20051;-80
2022/02/18 04:47:15;;;;;;;0.00;0.00;;;;;18.90;100287.00;;;;5131072;27;20043;-80
2022/02/18 04:49:45;;;;;;;0.00;0.00;;;;;18.70;100281.00;;;;5131067;27;20035;-79
2022/02/18 04:52:15;;;;;;;0.00;0.00;;;;;18.50;100259.00;;;;5113417;27;20043;-82
2022/02/18 04:54:44;;;;;;;0.00;0.00;;;;;18.40;100274.00;;;;5129490;27;20047;-79
2022/02/18 04:57:14;;;;;;;0.00;0.00;;;;;18.40;100264.00;;;;5130729;27;20080;-81
2022/02/18 04:59:43;;;;;;;0.00;0.00;;;;;18.30;100267.00;;;;5131871;27;20043;-80
2022/02/18 05:02:14;;;;;;;0.00;0.00;;;;;18.20;100263.00;;;;5112890;27;20047;-78
2022/02/18 05:04:44;;;;;;;0.00;0.00;;;;;18.20;100264.00;;;;5132296;27;20505;-81
2022/02/18 05:07:14;;;;;;;0.00;0.00;;;;;18.20;100254.00;;;;5131217;27;20516;-81
2022/02/18 05:09:45;;;;;;;0.00;0.00;;;;;18.20;100262.00;;;;5130854;27;20050;-79
2022/02/18 05:12:15;;;;;;;0.00;0.00;;;;;18.10;100254.00;;;;5129504;27;20043;-79
2022/02/18 05:14:44;;;;;;;0.00;0.00;;;;;18.10;100260.00;;;;5129695;27;20050;-78
2022/02/18 05:17:14;;;;;;;0.00;0.00;;;;;18.00;100243.00;;;;5130642;27;20050;-79
2022/02/18 05:19:43;;;;;;;0.00;0.00;;;;;17.90;100265.00;;;;5130496;27;20067;-79
2022/02/18 05:22:13;;;;;;;0.00;0.00;;;;;17.90;100268.00;;;;5128734;27;20088;-78
2022/02/18 05:24:44;;;;;;;;;;;;;17.90;100266.00;;;;5129764;27;20047;-78
2022/02/18 05:27:13;;;;;;;0.00;0.00;;;;;17.90;100250.00;;;;5131396;27;20488;-81
2022/02/18 05:29:43;;;;;;;0.00;0.00;;;;;17.90;100255.00;;;;5130824;27;20076;-81
2022/02/18 05:32:12;;;;;;;0.00;0.00;;;;;17.80;100249.00;;;;5130961;27;20054;-78
2022/02/18 05:34:42;;;;;;;0.00;0.00;;;;;17.80;100260.00;;;;5112122;27;20108;-81
2022/02/18 05:37:11;;;;;;;0.00;0.00;;;;;17.80;100254.00;;;;5128880;27;20047;-78
2022/02/18 05:39:41;;;;;;;0.00;0.00;;;;;17.80;100251.00;;;;5130415;27;20043;-80
2022/02/18 05:42:10;;;;;;;0.00;0.00;;;;;17.70;100263.00;;;;5130291;27;20089;-79
2022/02/18 05:44:39;;;;;;;0.00;0.00;;;;;17.70;100244.00;;;;5128499;27;20066;-79
2022/02/18 05:47:09;;;;;;;0.00;0.00;;;;;17.70;100233.00;;;;5128892;27;20149;-79
2022/02/18 05:49:38;;;;;;;0.00;0.00;;;;;17.70;100252.00;;;;5128215;27;20058;-80
2022/02/18 05:52:08;;;;;;;0.00;0.00;;;;;17.90;100251.00;;;;5129992;27;20046;-81
2022/02/18 05:54:37;;;;;;;0.00;0.00;;;;;17.90;100250.00;;;;5128392;27;20047;-80
2022/02/18 05:57:06;;;;;;;0.00;0.00;;;;;17.90;100251.00;;;;5130212;27;20092;-78
2022/02/18 05:59:36;;;;;;;0.00;0.00;;;;;17.90;100224.00;;;;5128512;27;20047;-79
2022/02/18 06:02:05;;;;;;;0.00;0.00;;;;;17.80;100233.00;;;;5128624;27;20041;-79
2022/02/18 06:04:34;;;;;;;0.00;0.00;;;;;17.80;100240.00;;;;5112277;27;20407;-79
2022/02/18 06:07:04;;;;;;;0.00;0.00;;;;;17.70;100223.00;;;;5130349;27;20050;-79
2022/02/18 06:09:33;;;;;;;0.00;0.00;;;;;17.80;100241.00;;;;5130817;27;20043;-81
2022/02/18 06:12:03;;;;;;;0.00;0.00;;;;;18.00;100219.00;;;;5129917;27;20114;-79
2022/02/18 06:14:32;;;;;;;0.00;0.00;;;;;18.10;100232.00;;;;5127506;27;20043;-80
2022/02/18 06:17:08;;;;;;;0.00;0.00;;;;;18.20;100241.00;;;;5129304;27;20047;-79
2022/02/18 06:19:38;;;;;;;0.00;0.00;;;;;18.20;100234.00;;;;5129443;27;20106;-78
2022/02/18 06:22:07;;;;;;;0.00;0.00;;;;;18.10;100226.00;;;;5130003;27;20039;-79
2022/02/18 06:24:37;;;;;;;0.00;0.00;;;;;18.00;100242.00;;;;5128356;27;20108;-79
2022/02/18 06:27:07;;;;;;;0.00;0.00;;;;;18.20;100235.00;;;;5110825;27;20062;-78
2022/02/18 06:29:39;;;;;;;0.00;0.00;;;;;18.20;100249.00;;;;5129884;27;20035;-79
2022/02/18 06:32:11;;;;;;;0.00;0.00;;;;;18.20;100225.00;;;;5128786;27;20035;-81
2022/02/18 06:34:40;;;;;;;0.00;0.00;;;;;18.20;100237.00;;;;5129261;27;20043;-80
2022/02/18 06:37:10;;;;;;;0.00;0.00;;;;;18.20;100239.00;;;;5127562;27;20035;-80
2022/02/18 06:39:40;;;;;;;0.00;0.00;;;;;18.20;100233.00;;;;5129520;27;20406;-79
2022/02/18 06:42:11;;;;;;;0.00;0.00;;;;;18.20;100226.00;;;;5127556;27;20081;-78
2022/02/18 06:44:40;;;;;;;0.00;0.00;;;;;18.10;100239.00;;;;5127306;27;20055;-80
2022/02/18 06:47:10;;;;;;;0.00;0.00;;;;;18.20;100218.00;;;;5128990;27;20585;-81
2022/02/18 06:49:41;;;;;;;0.00;0.00;;;;;18.20;100241.00;;;;5127506;27;20506;-79
2022/02/18 06:52:10;;;;;;;0.00;0.00;;;;;18.20;100227.00;;;;5126810;27;20092;-80
2022/02/18 06:54:40;;;;;;;0.00;0.00;;;;;18.20;100233.00;;;;5127579;27;20043;-79
2022/02/18 06:57:11;;;;;;;0.00;0.00;;;;;18.30;100209.00;;;;5128514;27;20104;-79
2022/02/18 06:59:41;;;;;;;0.00;0.00;;;;;18.30;100225.00;;;;5127081;27;20578;-81
2022/02/18 07:02:11;;;;;;;0.00;0.00;;;;;18.30;100203.00;;;;5127858;27;20051;-79
2022/02/18 07:04:40;;;;;;;0.00;0.00;;;;;18.30;100219.00;;;;5127818;27;20083;-78
2022/02/18 07:07:10;;;;;;;0.00;0.00;;;;;18.30;100211.00;;;;5126453;27;20047;-81
2022/02/18 07:09:40;;;;;;;0.00;0.00;;;;;18.30;100211.00;;;;5126584;27;20046;-80
2022/02/18 07:12:09;;;;;;;0.00;0.00;;;;;18.40;100204.00;;;;5126571;27;20050;-78
2022/02/18 07:14:39;;;;;;;0.00;0.00;;;;;18.20;100225.00;;;;5128340;27;20523;-82
2022/02/18 07:17:14;;;;;;;0.00;0.00;;;;;18.20;100224.00;;;;5126261;27;20051;-80
2022/02/18 07:19:45;;;;;;;0.00;0.00;;;;;18.10;100219.00;;;;5126532;27;20051;-79
2022/02/18 07:22:15;;;;;;;0.00;0.00;;;;;18.00;100201.00;;;;5109655;27;20066;-80
2022/02/18 07:24:46;;;;;;;0.00;0.00;;;;;18.00;100193.00;;;;5127626;27;20054;-79
2022/02/18 07:27:16;;;;;;;0.00;0.00;;;;;17.90;100212.00;;;;5127449;27;20051;-80
2022/02/18 07:29:45;;;;;;;0.00;0.00;;;;;17.80;100199.00;;;;5127825;27;20050;-79
2022/02/18 07:32:15;;;;;;;0.00;0.00;;;;;17.70;100221.00;;;;5126890;27;20051;-81
2022/02/18 07:34:44;;;;;;;0.00;0.00;;;;;17.70;100209.00;;;;5126093;27;20039;-79
2022/02/18 07:37:13;;;;;;;0.00;0.00;;;;;17.70;100230.00;;;;5109382;27;20043;-79
2022/02/18 07:39:43;;;;;;;0.00;0.00;;;;;17.70;100232.00;;;;5125720;27;20100;-81
2022/02/18 07:42:12;;;;;;;0.00;0.00;;;;;17.60;100227.00;;;;5126373;27;20043;-81
2022/02/18 07:44:44;;;;;;;0.00;0.00;;;;;17.60;100204.00;;;;5109794;27;20062;-81
2022/02/18 07:47:16;;;;;;;0.00;0.00;;;;;17.60;100230.00;;;;5125785;27;20154;-80
2022/02/18 07:49:54;;;;;;;0.00;0.00;;;;;17.60;100225.00;;;;5125922;27;20108;-81
2022/02/18 07:52:23;;;;;;;0.00;0.00;;;;;17.50;100238.00;;;;5127610;27;20043;-81
2022/02/18 07:54:55;;;;;;;0.00;0.00;;;;;17.50;100220.00;;;;5126602;27;20051;-81
2022/02/18 07:57:25;;;;;;;;;;;;;17.40;100232.00;;;;5127993;27;20557;-78
2022/02/18 07:59:54;;;;;;;0.00;0.00;;;;;17.40;100214.00;;;;5109393;27;19919;-79
2022/02/18 08:02:24;;;;;;;0.00;0.00;;;;;17.40;100200.00;;;;5126134;27;20043;-80
2022/02/18 08:04:55;;;;;;;0.00;0.00;;;;;17.40;100211.00;;;;5125018;27;20082;-81
2022/02/18 08:07:25;;;;;;;0.00;0.00;;;;;17.40;100210.00;;;;5126133;27;20039;-80
2022/02/18 08:09:54;;;;;;;0.00;0.00;;;;;17.30;100221.00;;;;5126416;27;20051;-79
2022/02/18 08:12:24;;;;;;;0.00;0.00;;;;;17.30;100232.00;;;;5109521;27;20065;-80
2022/02/18 08:14:54;;;;;;;0.00;0.00;;;;;17.30;100230.00;;;;5126236;27;20107;-80
2022/02/18 08:17:23;;;;;;;0.00;0.00;;;;;17.20;100220.00;;;;5126648;27;20486;-81
2022/02/18 08:19:57;;;;;;;0.00;0.00;;;;;17.20;100205.00;;;;5127422;27;20043;-78
2022/02/18 08:22:27;;;;;;;0.00;0.00;;;;;17.20;100201.00;;;;5126986;28;20039;-79
2022/02/18 08:24:56;;;;;;;0.00;0.00;;;;;17.20;100212.00;;;;5126920;27;20057;-80
2022/02/18 08:27:25;;;;;;;0.00;0.00;;;;;17.20;100199.00;;;;5127048;27;20090;-79
2022/02/18 08:29:56;;;;;;;0.00;0.00;;;;;17.10;100201.00;;;;5126730;27;20050;-80
2022/02/18 08:32:25;;;;;;;0.00;0.00;;;;;17.20;100207.00;;;;5127654;28;20047;-79
2022/02/18 08:34:56;;;;;;;0.00;0.00;;;;;17.10;100230.00;;;;5109263;28;20061;-79
2022/02/18 08:37:26;;;;;;;0.00;0.00;;;;;17.20;100198.00;;;;5125032;28;20031;-81
2022/02/18 08:39:55;;;;;;;0.00;0.00;;;;;17.10;100222.00;;;;5127073;27;20043;-82
2022/02/18 08:42:25;;;;;;;0.00;0.00;;;;;17.00;100235.00;;;;5126660;27;20070;-80
2022/02/18 08:44:54;;;;;;;0.00;0.00;;;;;17.00;100231.00;;;;5127408;27;20058;-80
2022/02/18 08:47:24;;;;;;;0.00;0.00;;;;;17.10;100231.00;;;;5125682;28;20039;-80
2022/02/18 08:49:54;;;;;;;0.00;0.00;;;;;17.10;100241.00;;;;5108756;28;20051;-79
2022/02/18 08:52:23;;;;;;;0.00;0.00;;;;;17.10;100216.00;;;;5126852;27;20043;-79
2022/02/18 08:54:53;;;;;;;0.00;0.00;;;;;17.10;100230.00;;;;5124633;28;20047;-80
2022/02/18 08:57:23;;;;;;;0.00;0.00;;;;;17.10;100226.00;;;;5125509;28;20051;-82
2022/02/18 08:59:52;;;;;;;0.00;0.00;;;;;17.10;100250.00;;;;5125404;28;20039;-81
2022/02/18 09:02:24;;;;;;;0.00;0.00;;;;;17.10;100254.00;;;;5126605;27;20050;-81
2022/02/18 09:04:57;;;;;;;0.00;0.00;;;;;17.20;100245.00;;;;5125084;28;20529;-80
2022/02/18 09:07:27;;;;;;;0.00;0.00;;;;;17.10;100231.00;;;;5124793;28;20047;-81
2022/02/18 09:09:58;;;;;;;0.00;0.00;;;;;17.10;100251.00;;;;5111919;27;20608;-81
2022/02/18 09:12:29;;;;;;;0.00;0.00;;;;;17.10;100250.00;;;;5129905;27;20043;-79
2022/02/18 09:14:59;;;;;;;0.00;0.00;;;;;17.10;100248.00;;;;5129663;27;20201;-81
2022/02/18 09:17:32;;;;;;;0.00;0.00;;;;;17.20;100244.00;;;;5113142;27;20054;-80
2022/02/18 09:20:04;;;;;;;0.00;0.00;;;;;17.20;100235.00;;;;5128179;27;20043;-82
2022/02/18 09:22:35;;;;;;;0.00;0.00;;;;;17.10;100252.00;;;;5129551;27;20047;-80
2022/02/18 09:25:04;;;;;;;0.00;0.00;;;;;17.10;100272.00;;;;5129100;27;20047;-80
2022/02/18 09:27:34;;;;;;;0.00;0.00;;;;;17.20;100259.00;;;;5130526;27;21126;-82
2022/02/18 09:30:06;;;;;;;0.00;0.00;;;;;17.40;100254.00;;;;5130527;27;20047;-80
2022/02/18 09:32:39;;;;;;;0.00;0.00;;;;;17.50;100272.00;;;;5129904;27;20043;-82
2022/02/18 09:35:11;;;;;;;0.00;0.00;;;;;17.60;100281.00;;;;5128690;27;20039;-81
2022/02/18 09:37:42;;;;;;;0.00;0.00;;;;;17.70;100271.00;;;;5130355;27;20039;-80
2022/02/18 09:40:16;;;;;;;0.00;0.00;;;;;17.80;100261.00;;;;5131969;27;20039;-80
2022/02/18 09:42:47;;;;;;;0.00;0.00;;;;;17.90;100270.00;;;;5133947;27;20510;-83
2022/02/18 09:45:18;;;;;;;0.00;0.00;;;;;18.10;100269.00;;;;5134312;27;20063;-79
2022/02/18 09:47:49;;;;;;;0.00;0.00;;;;;18.20;100278.00;;;;5119170;27;20050;-81
2022/02/18 09:50:19;;;;;;;0.00;0.00;;;;;18.30;100265.00;;;;5118969;27;20047;-80
2022/02/18 09:53:08;;;;;;;0.00;0.00;;;;;18.30;100290.00;;;;5121878;27;20049;-76
2022/02/18 09:55:39;;;;;;;0.10;0.10;;;;;18.40;100285.00;;;;5142400;27;20037;-80
2022/02/18 09:58:09;;;;;;;;;;;;;18.60;100305.00;;;;5156196;27;20031;-80
2022/02/18 10:00:39;;;;;;;0.00;0.00;;;;;18.70;100288.00;;;;5156016;27;19915;-81
2022/02/18 10:03:09;;;;;;;0.00;0.00;;;;;18.80;100268.00;;;;5138549;27;20038;-81
2022/02/18 10:05:39;;;;;;;0.00;0.00;;;;;19.00;100277.00;;;;5155667;27;20027;-82
2022/02/18 10:08:18;;;;;;;0.00;0.00;;;;;19.10;100287.00;;;;5156232;27;20034;-80
2022/02/18 10:11:07;;;;;;;0.00;0.00;;;;;19.00;100285.00;;;;5151587;27;20047;-81
2022/02/18 10:13:43;;;;;;;0.00;0.00;;;;;19.20;100287.00;;;;5130086;27;20035;-80
2022/02/18 10:16:21;;;;;;;0.00;0.00;;;;;19.40;100304.00;;;;5127892;27;20395;-81
2022/02/18 10:18:56;;;;;;;0.00;0.00;;;;;19.40;100276.00;;;;5127621;27;20092;-84
2022/02/18 10:21:30;;;;;;;0.00;0.00;;;;;19.70;100297.00;;;;5129321;27;20046;-80
2022/02/18 10:24:18;;;;;;;0.00;0.00;;;;;19.90;100280.00;;;;5129944;27;20395;-81
2022/02/18 10:26:54;;;;;;;0.00;0.00;;;;;20.60;100252.00;;;;5128227;27;20050;-81
2022/02/18 10:29:37;;;;;;;0.00;0.00;;;;;23.30;100138.00;;;;5127998;27;20057;-83
2022/02/18 10:32:08;;;;;;;0.00;0.00;;;;;26.20;100101.00;;;;5111804;27;20043;-81
2022/02/18 10:35:03;;;;;;;0.00;0.00;;;;;27.90;100085.00;;;;5127767;27;20824;-82
2022/02/18 10:37:35;;;;;;;0.00;0.00;;;;;29.10;100063.00;;;;5127801;27;20486;-80
2022/02/18 10:40:13;;;;;;;0.00;0.00;;;;;29.70;100091.00;;;;5111540;27;20514;-82
2022/02/18 10:42:45;;;;;;;0.00;0.00;;;;;30.10;100086.00;;;;5128432;27;20067;-81
2022/02/18 10:45:16;;;;;;;0.00;0.00;;;;;30.60;100100.00;;;;5129630;27;20061;-83
2022/02/18 10:47:48;;;;;;;0.00;0.00;;;;;31.40;100105.00;;;;5128487;27;20080;-83
2022/02/18 10:50:29;;;;;;;0.00;0.00;;;;;31.90;100105.00;;;;5125900;27;20528;-86
2022/02/18 10:53:21;;;;;;;0.00;0.00;;;;;31.90;100095.00;;;;5125291;27;20054;-82
2022/02/18 10:55:55;;;;;;;0.00;0.00;;;;;31.80;100182.00;;;;5123194;27;20051;-80
2022/02/18 10:58:33;;;;;;;0.15;0.10;;;;;30.20;100128.00;;;;5128740;27;20047;-81
2022/02/18 11:01:21;;;;;;;0.00;0.00;;;;;31.80;100126.00;;;;5129398;27;20042;-80
2022/02/18 11:03:52;;;;;;;0.00;0.00;;;;;32.60;100113.00;;;;5128318;27;20436;-80
2022/02/18 11:06:33;;;;;;;0.00;0.00;;;;;33.20;100115.00;;;;5127127;27;20066;-82
2022/02/18 11:09:14;;;;;;;0.00;0.00;;;;;34.00;100112.00;;;;5127001;27;20047;-80
2022/02/18 11:11:46;;;;;;;0.00;0.00;;;;;33.70;100106.00;;;;5128197;27;20084;-81
2022/02/18 11:14:18;;;;;;;0.00;0.00;;;;;31.60;100151.00;;;;5126877;27;20047;-79
2022/02/18 11:16:52;;;;;;;0.00;0.00;;;;;31.20;100113.00;;;;5128001;27;20035;-83
2022/02/18 11:19:24;;;;;;;0.00;0.00;;;;;32.60;100080.00;;;;5126262;27;20035;-80
2022/02/18 11:22:14;;;;;;;0.10;0.10;;;;;33.00;100053.00;;;;5139963;27;20097;-80
2022/02/18 11:24:48;;;;;;;0.00;0.00;;;;;32.90;100038.00;;;;5154586;27;20494;-81
2022/02/18 11:27:17;;;;;;;0.00;0.00;;;;;33.90;100058.00;;;;5150854;27;20028;-77
2022/02/18 11:29:47;;;;;;;0.00;0.00;;;;;33.90;100055.00;;;;5148231;27;20068;-77
2022/02/18 11:32:30;;;;;;;0.00;0.00;;;;;34.30;100074.00;;;;5138188;27;20425;-80
2022/02/18 11:35:46;;;;;;;0.00;0.00;;;;;31.40;100233.00;;;;5132797;27;20715;-80
2022/02/18 11:38:32;;;;;;;0.00;0.00;;;;;30.30;100211.00;;;;5126195;27;20053;-82
2022/02/18 11:41:25;;;;;;;0.00;0.00;;;;;31.10;100103.00;;;;5128247;27;20129;-82
2022/02/18 11:43:58;;;;;;;0.00;0.00;;;;;28.60;100087.00;;;;5127131;27;20074;-80
2022/02/18 11:46:28;;;;;;;0.00;0.00;;;;;32.70;100051.00;;;;5109604;27;20047;-79
2022/02/18 11:48:59;;;;;;;0.00;0.00;;;;;34.30;100088.00;;;;5126822;27;20051;-79
2022/02/18 11:51:42;;;;;;;0.00;0.00;;;;;33.90;100082.00;;;;5126819;27;20122;-81
2022/02/18 11:54:28;;;;;;;0.00;0.00;;;;;33.00;100096.00;;;;5127314;27;20047;-78
2022/02/18 11:57:18;;;;;;;0.00;0.00;;;;;34.10;100098.00;;;;5126030;27;20043;-81
2022/02/18 12:00:00;;;;;;;0.00;0.00;;;;;33.90;100117.00;;;;5109307;27;20111;-81
2022/02/18 12:02:48;;;;;;;0.00;0.00;;;;;33.20;100163.00;;;;5127220;27;20510;-79
2022/02/18 12:05:20;;;;;;;0.00;0.00;;;;;32.40;100234.00;;;;5109617;27;20510;-82
2022/02/18 12:07:54;;;;;;;0.00;0.00;;;;;31.30;100206.00;;;;5125784;27;20057;-78
2022/02/18 12:10:27;;;;;;;0.00;0.00;;;;;32.00;100184.00;;;;5127189;27;20053;-79
2022/02/18 12:13:08;;;;;;;0.00;0.00;;;;;31.90;100281.00;;;;5126862;27;20043;-80
2022/02/18 12:15:40;;;;;;;0.00;0.00;;;;;32.30;100283.00;;;;5127852;27;20547;-82
2022/02/18 12:18:25;;;;;;;0.00;0.00;;;;;31.60;100299.00;;;;5127331;27;20509;-79
2022/02/18 12:21:08;;;;;;;1.75;1.65;;;;;31.90;100273.00;;;;5126266;28;20432;-81
2022/02/18 12:23:41;;;;;;;0.00;0.00;;;;;31.80;100270.00;;;;5128101;27;20039;-79
2022/02/18 12:26:22;;;;;;;0.00;0.00;;;;;31.90;100279.00;;;;5125807;28;20464;-78
2022/02/18 12:29:15;;;;;;;0.00;0.00;;;;;31.90;100275.00;;;;5127148;28;20529;-78
2022/02/18 12:31:52;;;;;;;0.00;0.00;;;;;31.70;100263.00;;;;5114012;28;20390;-78
2022/02/18 12:34:30;;;;;;;0.00;0.00;;;;;31.60;100282.00;;;;5126253;28;20043;-79